LPMA/FNC METAR and TAF weather

Enter ICAO airport designator
Station Type Date Time Source
LPMA METAR 2021/04/13 07:30 UTC NOAA

LPMA 130730Z VRB02KT 9999 FEW014 19/16 Q1018


Station Type Date Time Source
LPMA Decoded METAR 2021/04/13 07:30 UTC NOAA

Aeroporto Da Madeira, Portugal (LPMA) 32-41-52N 016-46-28W
Apr 13, 2021 - 03:30 AM EDT / 2021.04.13 0730 UTC
Wind: Variable at 2 MPH (2 KT):0
Visibility: greater than 7 mile(s):0
Sky conditions: mostly clear
Temperature: 66 F (19 C)
Dew Point: 60 F (16 C)
Relative Humidity: 82%
Pressure (altimeter): 30.06 in. Hg (1018 hPa)
ob: LPMA 130730Z VRB02KT 9999 FEW014 19/16 Q1018
cycle: 7

Station Type Date Time Source
LPMA TAF 2021/04/13 06:18 UTC NOAA

TAF LPMA 130500Z 1306/1406 21010KT 9999 SCT015 SCT050
TEMPO 1306/1406 6000 -RA SCT008 BKN013 PROB30
TEMPO 1306/1406 3000 TSRA BKN006 SCT015CB
BECMG 1315/1318 VRB05KT

Example: see airport list